createdAt,value
2022-11-09T00:01:15.407Z,69.80
2022-11-09T00:03:28.198Z,69.70
2022-11-09T00:05:29.939Z,69.80
2022-11-09T00:07:33.712Z,69.80
2022-11-09T00:09:35.490Z,69.70
2022-11-09T00:11:37.761Z,69.80
2022-11-09T00:13:40.135Z,69.90
2022-11-09T00:15:41.822Z,70.00
2022-11-09T00:17:43.482Z,69.60
2022-11-09T00:19:45.251Z,69.70
2022-11-09T00:21:46.914Z,69.50
2022-11-09T00:23:48.782Z,69.60
2022-11-09T00:25:50.496Z,69.50
2022-11-09T00:27:52.629Z,69.50
2022-11-09T00:29:54.278Z,69.60
2022-11-09T00:31:55.962Z,69.80
2022-11-09T00:33:57.846Z,69.80
2022-11-09T00:35:59.469Z,70.00
2022-11-09T00:38:01.179Z,70.30
2022-11-09T00:40:02.935Z,70.20
2022-11-09T00:42:04.565Z,70.30
2022-11-09T00:44:06.265Z,70.20
2022-11-09T00:46:08.116Z,70.40
2022-11-09T00:48:10.341Z,70.40
2022-11-09T00:50:11.995Z,70.50
2022-11-09T00:52:13.706Z,70.40
2022-11-09T00:54:15.442Z,70.10
2022-11-09T00:56:17.135Z,70.20
2022-11-09T00:58:18.827Z,70.10
2022-11-09T01:00:23.240Z,69.90
2022-11-09T01:02:24.913Z,69.60
2022-11-09T01:04:26.556Z,70.00
2022-11-09T01:06:28.299Z,70.10
2022-11-09T01:08:30.346Z,70.00
2022-11-09T01:10:32.038Z,70.10
2022-11-09T01:12:33.798Z,70.10
2022-11-09T01:14:36.516Z,70.20
2022-11-09T01:16:38.971Z,70.00
2022-11-09T01:18:41.108Z,69.60
2022-11-09T01:20:43.788Z,69.90
2022-11-09T01:22:45.474Z,69.90
2022-11-09T01:24:47.136Z,69.90
2022-11-09T01:26:48.772Z,69.60
2022-11-09T01:28:50.416Z,70.00
2022-11-09T01:30:52.068Z,69.80
2022-11-09T01:32:53.720Z,69.70
2022-11-09T01:34:55.371Z,70.00
2022-11-09T01:36:57.402Z,70.30
2022-11-09T01:38:59.065Z,70.50
2022-11-09T01:41:00.709Z,70.20
2022-11-09T01:43:15.125Z,70.40
2022-11-09T01:45:19.805Z,70.30
2022-11-09T01:47:24.705Z,70.10
2022-11-09T01:49:47.727Z,70.10
2022-11-09T01:51:53.776Z,70.20
2022-11-09T01:53:58.599Z,70.30
2022-11-09T01:56:01.944Z,70.50
2022-11-09T01:58:06.280Z,70.40
2022-11-09T02:00:09.619Z,70.60
2022-11-09T02:02:17.666Z,70.50
2022-11-09T02:04:21.939Z,70.50
2022-11-09T02:06:25.422Z,70.60
2022-11-09T02:08:27.178Z,70.50
2022-11-09T02:10:35.776Z,70.50
2022-11-09T02:12:37.578Z,70.70
2022-11-09T02:14:40.504Z,70.70
2022-11-09T02:16:42.611Z,70.70
2022-11-09T02:18:52.064Z,70.70
2022-11-09T02:20:57.785Z,70.60
2022-11-09T02:23:01.258Z,70.70
2022-11-09T02:25:04.904Z,70.70
2022-11-09T02:27:06.918Z,70.70
2022-11-09T02:29:09.815Z,70.70
2022-11-09T02:31:13.265Z,70.70
2022-11-09T02:33:16.710Z,70.60
2022-11-09T02:35:19.236Z,70.50
2022-11-09T02:37:28.160Z,70.50
2022-11-09T02:39:30.257Z,70.40
2022-11-09T02:41:32.413Z,70.30
2022-11-09T02:43:35.572Z,70.40
2022-11-09T02:45:37.779Z,70.30
2022-11-09T02:47:40.399Z,70.30
2022-11-09T02:49:42.405Z,70.30
2022-11-09T02:51:44.124Z,70.40
2022-11-09T02:53:45.814Z,70.30
2022-11-09T02:55:47.467Z,70.40
2022-11-09T02:57:49.131Z,70.30
2022-11-09T02:59:50.920Z,70.20
2022-11-09T03:01:53.035Z,70.20
2022-11-09T03:03:55.956Z,70.20
2022-11-09T03:05:58.600Z,70.20
2022-11-09T03:08:02.481Z,70.20
2022-11-09T03:10:06.840Z,70.20
2022-11-09T03:12:27.762Z,70.10
2022-11-09T03:14:29.932Z,70.40
2022-11-09T03:16:32.708Z,70.40
2022-11-09T03:18:34.356Z,70.30
2022-11-09T03:20:36.031Z,70.40
2022-11-09T03:22:37.668Z,70.30
2022-11-09T03:24:39.474Z,70.20
2022-11-09T03:26:41.342Z,70.30
2022-11-09T03:28:43.142Z,70.30
2022-11-09T03:30:44.849Z,70.30
2022-11-09T03:32:50.374Z,70.30
2022-11-09T03:34:52.577Z,70.30
2022-11-09T03:36:54.748Z,70.50
2022-11-09T03:38:57.142Z,70.50
2022-11-09T03:40:59.530Z,70.50
2022-11-09T03:43:01.361Z,70.50
2022-11-09T03:45:03.056Z,70.40
2022-11-09T03:47:04.759Z,70.50
2022-11-09T04:02:12.398Z,70.50
2022-11-09T04:04:24.160Z,70.10
2022-11-09T04:06:31.295Z,70.10
2022-11-09T04:11:03.384Z,70.10
2022-11-09T04:15:44.945Z,70.10
2022-11-09T04:18:06.963Z,70.10
2022-11-09T04:20:31.492Z,70.00
2022-11-09T04:22:49.826Z,70.00
2022-11-09T04:25:10.872Z,70.00
2022-11-09T04:28:13.896Z,70.10
2022-11-09T04:30:39.510Z,70.10
2022-11-09T04:33:25.563Z,70.00
2022-11-09T04:36:03.815Z,70.10
2022-11-09T04:50:50.224Z,70.20
2022-11-09T04:53:33.330Z,70.10
2022-11-09T04:56:08.478Z,70.20
2022-11-09T04:58:26.143Z,70.40
2022-11-09T05:00:55.137Z,70.30
2022-11-09T05:03:12.596Z,70.30
2022-11-09T05:08:38.188Z,70.30
2022-11-09T05:10:55.039Z,70.40
2022-11-09T05:13:02.408Z,70.50
2022-11-09T05:15:33.962Z,70.50
2022-11-09T05:17:58.526Z,71.30
2022-11-09T05:20:00.330Z,71.40
2022-11-09T05:22:26.716Z,70.60
2022-11-09T05:24:36.176Z,70.70
2022-11-09T05:26:49.067Z,70.60
2022-11-09T05:29:34.844Z,71.00
2022-11-09T05:32:20.592Z,70.80
2022-11-09T05:35:27.785Z,71.10
2022-11-09T05:46:39.293Z,70.80
2022-11-09T05:49:25.911Z,70.70
2022-11-09T05:51:41.366Z,71.10
2022-11-09T05:54:08.713Z,71.00
2022-11-09T05:56:15.918Z,70.90
2022-11-09T05:58:40.063Z,71.10
2022-11-09T06:00:55.156Z,70.80
2022-11-09T06:03:21.523Z,70.90
2022-11-09T06:05:52.955Z,70.90
2022-11-09T06:10:41.613Z,70.90
2022-11-09T06:12:48.649Z,70.80
2022-11-09T06:14:53.511Z,71.00
2022-11-09T06:17:01.314Z,71.10
2022-11-09T06:19:23.359Z,71.10
2022-11-09T06:21:42.602Z,71.20
2022-11-09T06:23:51.898Z,71.20
2022-11-09T06:26:09.847Z,70.90
2022-11-09T06:28:23.622Z,71.00
2022-11-09T06:32:47.471Z,70.50
2022-11-09T06:35:06.745Z,70.50
2022-11-09T06:37:08.590Z,70.40
2022-11-09T06:45:56.447Z,71.00
2022-11-09T06:49:09.565Z,71.10
2022-11-09T06:51:26.746Z,71.20
2022-11-09T06:57:00.557Z,71.20
2022-11-09T07:00:50.308Z,71.20
2022-11-09T07:03:36.440Z,71.30
2022-11-09T07:09:27.183Z,71.60
2022-11-09T07:11:43.132Z,71.60
2022-11-09T07:14:03.441Z,71.60
2022-11-09T07:17:11.048Z,71.50
2022-11-09T07:23:00.000Z,71.50
2022-11-09T07:25:34.540Z,71.50
2022-11-09T07:30:38.281Z,71.60
2022-11-09T07:37:59.289Z,71.50
2022-11-09T07:40:21.697Z,71.40
2022-11-09T07:42:51.021Z,71.50
2022-11-09T07:46:02.475Z,71.50
2022-11-09T07:47:54.787Z,71.80
2022-11-09T07:50:05.904Z,71.70
2022-11-09T07:52:18.436Z,71.70
2022-11-09T07:54:29.086Z,71.70
2022-11-09T07:56:40.823Z,71.80
2022-11-09T07:58:55.411Z,71.90
2022-11-09T08:01:00.822Z,71.80
2022-11-09T08:03:12.317Z,71.90
2022-11-09T08:05:23.499Z,71.80
2022-11-09T08:07:28.341Z,71.80
2022-11-09T08:09:30.118Z,71.90
2022-11-09T08:11:32.097Z,71.80
2022-11-09T08:13:34.254Z,71.70
2022-11-09T08:15:36.392Z,71.80
2022-11-09T08:17:38.077Z,71.70
2022-11-09T08:19:39.797Z,71.60
2022-11-09T08:21:41.571Z,71.60
2022-11-09T08:23:43.335Z,71.70
2022-11-09T08:25:45.101Z,71.60
2022-11-09T08:27:47.099Z,71.60
2022-11-09T08:29:48.857Z,71.60
2022-11-09T08:31:51.386Z,71.50
2022-11-09T08:33:53.173Z,71.20
2022-11-09T08:35:55.441Z,71.40
2022-11-09T08:37:59.979Z,71.50
2022-11-09T08:40:01.767Z,71.40
2022-11-09T08:42:03.589Z,71.10
2022-11-09T08:44:05.323Z,71.20
2022-11-09T08:46:07.027Z,71.20
2022-11-09T08:48:10.042Z,71.00
2022-11-09T08:50:12.536Z,71.00
2022-11-09T08:52:15.673Z,71.10
2022-11-09T08:54:18.148Z,71.20
2022-11-09T08:56:19.959Z,71.10
2022-11-09T08:58:21.988Z,71.00
2022-11-09T09:00:24.053Z,71.10
2022-11-09T09:02:25.858Z,71.30
2022-11-09T09:04:27.772Z,71.40
2022-11-09T09:06:31.370Z,71.60
2022-11-09T09:08:33.773Z,71.50
2022-11-09T09:10:35.565Z,71.60
2022-11-09T09:12:37.835Z,71.60
2022-11-09T09:14:39.585Z,71.40
2022-11-09T09:16:42.047Z,71.40
2022-11-09T09:18:44.081Z,71.50
2022-11-09T09:20:45.850Z,71.60
2022-11-09T09:22:47.600Z,71.70
2022-11-09T09:24:49.276Z,71.60
2022-11-09T09:26:50.972Z,71.80
2022-11-09T09:28:52.722Z,71.80
2022-11-09T09:30:54.481Z,71.40
2022-11-09T09:33:00.244Z,71.50
2022-11-09T09:35:01.973Z,71.60
2022-11-09T09:37:03.661Z,71.60
2022-11-09T09:39:05.982Z,71.60
2022-11-09T09:41:07.888Z,71.70
2022-11-09T09:43:19.634Z,71.80
2022-11-09T09:45:23.592Z,71.70
2022-11-09T09:47:25.214Z,71.80
2022-11-09T09:49:30.676Z,72.00
2022-11-09T09:51:32.322Z,71.90
2022-11-09T09:53:37.102Z,72.00
2022-11-09T09:55:41.504Z,71.80
2022-11-09T09:57:46.819Z,71.80
2022-11-09T09:59:49.929Z,71.70
2022-11-09T10:01:51.713Z,71.80
2022-11-09T10:03:53.491Z,71.80
2022-11-09T10:06:14.075Z,71.70
2022-11-09T10:08:25.361Z,71.60
2022-11-09T10:10:36.188Z,71.70
2022-11-09T10:13:01.776Z,71.60
2022-11-09T10:15:15.433Z,71.40
2022-11-09T10:17:17.191Z,71.60
2022-11-09T10:19:22.827Z,71.50
2022-11-09T10:21:44.149Z,71.60
2022-11-09T10:23:54.972Z,71.60
2022-11-09T10:26:07.027Z,71.60
2022-11-09T10:28:14.161Z,71.60
2022-11-09T10:30:17.476Z,71.50
2022-11-09T10:32:20.384Z,71.40
2022-11-09T10:34:29.833Z,71.20
2022-11-09T10:36:42.043Z,71.10
2022-11-09T10:38:45.127Z,71.10
2022-11-09T10:41:24.350Z,71.00
2022-11-09T10:43:44.787Z,70.90
2022-11-09T10:46:05.970Z,71.00
2022-11-09T10:48:30.519Z,71.00
2022-11-09T10:50:54.039Z,71.10
2022-11-09T10:53:15.962Z,71.00
2022-11-09T10:55:36.993Z,71.10
2022-11-09T10:58:01.618Z,72.00
2022-11-09T11:00:22.133Z,72.00
2022-11-09T11:02:44.202Z,71.10
2022-11-09T11:05:07.704Z,71.20
2022-11-09T11:07:27.903Z,71.30
2022-11-09T11:09:47.960Z,72.10
2022-11-09T11:12:20.311Z,71.40
2022-11-09T11:14:44.659Z,72.20
2022-11-09T11:17:04.902Z,71.50
2022-11-09T11:19:31.209Z,71.50
2022-11-09T11:22:09.975Z,72.00
2022-11-09T11:24:40.387Z,71.40
2022-11-09T11:27:10.192Z,72.10
2022-11-09T11:29:43.606Z,71.10
2022-11-09T11:32:03.743Z,71.20
2022-11-09T11:34:53.543Z,71.90
2022-11-09T11:37:21.208Z,72.00
2022-11-09T11:39:47.642Z,71.10
2022-11-09T11:42:20.413Z,71.10
2022-11-09T11:44:52.667Z,71.00
2022-11-09T11:47:20.612Z,71.00
2022-11-09T11:50:01.724Z,71.00
2022-11-09T11:52:22.712Z,71.00
2022-11-09T11:55:00.104Z,71.80
2022-11-09T11:57:29.971Z,70.90
2022-11-09T11:59:50.014Z,71.70
2022-11-09T12:02:27.575Z,70.70
2022-11-09T12:05:10.704Z,70.70
2022-11-09T12:07:36.458Z,70.50
2022-11-09T12:10:11.625Z,70.50
2022-11-09T12:12:50.130Z,71.20
2022-11-09T12:15:19.883Z,70.40
2022-11-09T12:17:46.388Z,70.30
2022-11-09T12:20:22.102Z,70.30
2022-11-09T12:22:45.543Z,70.30
2022-11-09T12:25:26.129Z,70.30
2022-11-09T12:27:53.603Z,70.20
2022-11-09T12:30:21.507Z,70.00
2022-11-09T12:33:05.125Z,70.00
2022-11-09T12:35:37.842Z,70.00
2022-11-09T12:38:17.591Z,70.00
2022-11-09T12:40:39.667Z,70.00
2022-11-09T12:43:03.949Z,69.90
2022-11-09T12:45:34.667Z,69.90
2022-11-09T12:47:57.856Z,69.90
2022-11-09T12:50:19.945Z,70.00
2022-11-09T12:52:40.729Z,70.00
2022-11-09T12:55:01.188Z,70.00
2022-11-09T12:57:22.863Z,70.80
2022-11-09T13:00:22.777Z,70.00
2022-11-09T13:03:49.184Z,69.80
2022-11-09T13:17:21.699Z,70.20
2022-11-09T13:24:00.952Z,70.30
2022-11-09T13:26:15.775Z,70.20
2022-11-09T13:29:09.073Z,70.30
2022-11-09T13:32:03.801Z,71.00
2022-11-09T13:34:42.971Z,70.20
2022-11-09T13:37:37.917Z,70.90
2022-11-09T13:40:51.282Z,71.00
2022-11-09T13:46:52.612Z,70.10
2022-11-09T13:59:06.457Z,70.10
2022-11-09T14:01:38.966Z,70.00
2022-11-09T14:04:21.884Z,70.10
2022-11-09T14:07:42.155Z,70.10
2022-11-09T14:16:47.068Z,70.00
2022-11-09T14:19:35.175Z,69.90
2022-11-09T14:22:16.828Z,69.80
2022-11-09T14:27:54.999Z,69.90
2022-11-09T14:30:42.344Z,70.00
2022-11-09T14:39:17.914Z,70.00
2022-11-09T14:45:25.275Z,70.80
2022-11-09T15:08:52.051Z,69.80
2022-11-09T15:32:42.521Z,70.20
2022-11-09T15:47:56.075Z,70.20
2022-11-09T15:50:20.389Z,70.30
2022-11-09T15:52:51.085Z,70.90
2022-11-09T15:57:53.710Z,70.10
2022-11-09T16:00:39.124Z,70.30
2022-11-09T16:03:03.866Z,70.20
2022-11-09T16:05:35.588Z,70.40
2022-11-09T16:07:59.663Z,70.40
2022-11-09T16:14:16.521Z,70.40
2022-11-09T16:30:24.104Z,71.40
2022-11-09T16:36:12.495Z,70.50
2022-11-09T16:38:54.861Z,71.50
2022-11-09T16:41:26.582Z,71.50
2022-11-09T16:44:08.141Z,70.70
2022-11-09T16:46:41.209Z,71.80
2022-11-09T16:55:44.150Z,70.90
2022-11-09T16:58:57.090Z,70.70
2022-11-09T17:01:37.597Z,70.70
2022-11-09T17:04:44.722Z,70.90
2022-11-09T17:09:54.210Z,70.90
2022-11-09T17:12:20.580Z,70.90
2022-11-09T17:15:26.323Z,70.90
2022-11-09T17:21:26.096Z,71.00
2022-11-09T17:33:38.222Z,72.10
2022-11-09T17:42:27.974Z,71.20
2022-11-09T17:59:43.780Z,71.40
2022-11-09T18:05:31.181Z,71.40
2022-11-09T18:08:09.934Z,72.20
2022-11-09T18:10:45.573Z,71.40
2022-11-09T18:13:27.841Z,71.40
2022-11-09T18:16:05.692Z,71.20
2022-11-09T18:21:23.909Z,71.00
2022-11-09T18:23:49.894Z,70.80
2022-11-09T18:26:17.580Z,71.10
2022-11-09T18:31:53.252Z,71.00
2022-11-09T18:34:55.318Z,71.00
2022-11-09T18:37:16.775Z,71.00
2022-11-09T18:42:42.798Z,71.20
2022-11-09T18:45:12.488Z,71.30
2022-11-09T18:48:02.345Z,71.30
2022-11-09T18:50:25.608Z,71.30
2022-11-09T18:52:56.075Z,71.40
2022-11-09T18:55:25.651Z,71.50
2022-11-09T19:00:36.674Z,71.40
2022-11-09T19:02:59.831Z,71.40
2022-11-09T19:05:28.255Z,71.30
2022-11-09T19:08:07.858Z,71.40
2022-11-09T19:10:35.844Z,71.50
2022-11-09T19:15:58.159Z,71.60
2022-11-09T19:18:33.386Z,71.70
2022-11-09T19:21:04.812Z,71.80
2022-11-09T19:23:34.650Z,71.50
2022-11-09T19:32:44.711Z,72.20
2022-11-09T19:35:36.374Z,71.50
2022-11-09T19:37:56.970Z,71.50
2022-11-09T19:40:45.720Z,71.50
2022-11-09T19:43:20.669Z,71.40
2022-11-09T19:45:53.456Z,71.40
2022-11-09T19:48:13.953Z,72.00
2022-11-09T19:50:38.818Z,71.10
2022-11-09T19:53:06.806Z,71.00
2022-11-09T19:55:57.805Z,71.10
2022-11-09T19:58:42.410Z,71.20
2022-11-09T20:01:23.581Z,71.30
2022-11-09T20:04:11.664Z,71.30
2022-11-09T20:06:52.452Z,72.10
2022-11-09T20:09:57.497Z,71.20
2022-11-09T20:13:00.763Z,72.00
2022-11-09T20:22:18.348Z,71.10
2022-11-09T20:24:50.718Z,71.00
2022-11-09T20:27:34.204Z,71.20
2022-11-09T20:29:58.551Z,71.90
2022-11-09T20:39:08.702Z,71.10
2022-11-09T20:41:33.879Z,71.00
2022-11-09T20:44:16.161Z,71.00
2022-11-09T20:50:00.316Z,70.90
2022-11-09T20:55:16.206Z,70.90
2022-11-09T20:57:43.712Z,70.90
2022-11-09T21:00:04.463Z,71.00
2022-11-09T21:02:25.141Z,71.00
2022-11-09T21:04:45.761Z,71.00
2022-11-09T21:07:07.524Z,71.00
2022-11-09T21:09:28.136Z,71.10
2022-11-09T21:12:07.742Z,71.20
2022-11-09T21:14:28.166Z,71.30
2022-11-09T21:16:52.716Z,71.20
2022-11-09T21:19:20.134Z,71.20
2022-11-09T21:21:40.592Z,71.10
2022-11-09T21:24:19.563Z,71.10
2022-11-09T21:26:58.751Z,71.20
2022-11-09T21:29:41.923Z,71.10
2022-11-09T21:32:05.071Z,71.10
2022-11-09T21:34:25.584Z,72.10
2022-11-09T21:36:45.746Z,71.50
2022-11-09T21:39:06.299Z,71.70
2022-11-09T21:41:38.782Z,71.80
2022-11-09T21:43:58.952Z,72.40
2022-11-09T21:46:18.938Z,72.50
2022-11-09T21:48:39.071Z,72.30
2022-11-09T21:50:59.160Z,71.50
2022-11-09T21:53:19.402Z,71.40
2022-11-09T21:55:39.907Z,71.20
2022-11-09T21:58:00.195Z,71.10
2022-11-09T22:00:21.145Z,71.20
2022-11-09T22:02:41.943Z,71.20
2022-11-09T22:05:02.175Z,71.20
2022-11-09T22:07:22.349Z,71.30
2022-11-09T22:10:08.378Z,71.40
2022-11-09T22:12:41.392Z,71.30
2022-11-09T22:15:20.723Z,72.20
2022-11-09T22:17:41.277Z,71.30
2022-11-09T22:20:20.109Z,71.50
2022-11-09T22:22:40.592Z,71.50
2022-11-09T22:25:00.746Z,71.50
2022-11-09T22:27:20.914Z,71.50
2022-11-09T22:29:41.124Z,71.50
2022-11-09T22:32:01.452Z,72.40
2022-11-09T22:34:21.765Z,71.60
2022-11-09T22:36:41.860Z,71.70
2022-11-09T22:39:02.076Z,71.70
2022-11-09T22:41:24.482Z,71.80
2022-11-09T22:43:44.947Z,71.80
2022-11-09T22:46:15.131Z,71.70
2022-11-09T22:48:36.222Z,71.80
2022-11-09T22:50:56.569Z,71.80
2022-11-09T22:53:16.773Z,71.70
2022-11-09T22:55:36.823Z,72.50
2022-11-09T22:57:57.234Z,72.40
2022-11-09T23:00:17.531Z,72.40
2022-11-09T23:02:37.875Z,71.50
2022-11-09T23:04:57.843Z,71.70
2022-11-09T23:07:17.878Z,71.50
2022-11-09T23:09:38.590Z,71.40
2022-11-09T23:11:58.954Z,71.40
2022-11-09T23:14:38.998Z,71.40
2022-11-09T23:16:59.106Z,71.30
2022-11-09T23:19:19.284Z,72.00
2022-11-09T23:21:39.442Z,72.00
2022-11-09T23:24:00.660Z,71.00
2022-11-09T23:26:21.542Z,72.00
2022-11-09T23:28:41.623Z,72.00
2022-11-09T23:31:03.363Z,72.10
2022-11-09T23:33:24.268Z,72.00
2022-11-09T23:35:44.571Z,72.10
2022-11-09T23:38:05.792Z,71.30
2022-11-09T23:40:26.508Z,71.40
2022-11-09T23:42:46.691Z,72.20
2022-11-09T23:45:07.565Z,72.10
2022-11-09T23:47:28.138Z,71.20
2022-11-09T23:49:48.379Z,71.20
2022-11-09T23:52:11.634Z,71.90
2022-11-09T23:54:31.937Z,71.10
2022-11-09T23:56:52.009Z,71.20
2022-11-09T23:59:12.060Z,71.30
